createdAt,value
2017-03-30T06:04:04.337Z,85
2017-03-30T06:05:26.175Z,100
2017-03-30T06:06:48.310Z,115
2017-03-30T06:08:10.478Z,130
2017-03-30T06:09:33.188Z,130
2017-03-30T06:10:55.767Z,140
2017-03-30T06:12:17.610Z,145
2017-03-30T06:13:39.887Z,140
2017-03-30T06:15:01.950Z,135
2017-03-30T06:16:23.774Z,135
2017-03-30T06:17:45.266Z,130
2017-03-30T06:19:07.092Z,130
2017-03-30T06:20:29.216Z,120
2017-03-30T06:21:51.750Z,115
2017-03-30T06:23:13.885Z,105
2017-03-30T06:24:35.754Z,110
2017-03-30T06:25:58.220Z,95
2017-03-30T06:27:20.384Z,95
2017-03-30T06:28:41.973Z,65
2017-03-30T06:30:03.785Z,50
2017-03-30T06:31:25.967Z,40
2017-03-30T06:32:47.579Z,40
2017-03-30T06:34:10.033Z,35
2017-03-30T06:35:32.183Z,35
2017-03-30T06:36:54.624Z,35
2017-03-30T06:38:15.804Z,35
2017-03-30T06:39:37.604Z,30
2017-03-30T06:40:58.794Z,30
2017-03-30T06:42:20.962Z,30
2017-03-30T06:43:42.775Z,30
2017-03-30T06:45:04.952Z,35
2017-03-30T06:46:26.791Z,40
2017-03-30T06:47:49.292Z,40
2017-03-30T06:49:11.261Z,45
2017-03-30T06:50:33.172Z,45
2017-03-30T06:51:55.634Z,50
2017-03-30T06:53:17.748Z,50
2017-03-30T06:54:39.882Z,55
2017-03-30T06:56:01.704Z,55
2017-03-30T06:57:24.186Z,55
2017-03-30T06:58:46.380Z,60
2017-03-30T07:00:08.375Z,60
2017-03-30T07:01:30.196Z,60
2017-03-30T07:02:52.656Z,60
2017-03-30T07:04:15.111Z,55
2017-03-30T07:05:37.256Z,55
2017-03-30T07:06:59.420Z,55
2017-03-30T07:08:21.451Z,55
2017-03-30T07:09:44.164Z,55
2017-03-30T07:11:05.993Z,65
2017-03-30T07:12:27.495Z,75
2017-03-30T07:13:49.624Z,80
2017-03-30T07:15:11.093Z,85
2017-03-30T07:16:33.084Z,85
2017-03-30T07:17:54.957Z,85
2017-03-30T07:19:17.106Z,85
2017-03-30T07:20:39.716Z,85
2017-03-30T07:22:01.850Z,85
2017-03-30T07:23:23.685Z,85
2017-03-30T07:24:45.883Z,85
2017-03-30T07:26:07.965Z,100
2017-03-30T07:27:30.454Z,110
2017-03-30T07:28:52.597Z,105
2017-03-30T07:30:14.747Z,100
2017-03-30T07:31:36.513Z,110
2017-03-30T07:32:58.644Z,125
2017-03-30T07:34:20.534Z,140
2017-03-30T07:35:42.686Z,125
2017-03-30T07:37:04.537Z,115
2017-03-30T07:38:26.977Z,110
2017-03-30T07:39:48.813Z,110
2017-03-30T07:41:10.375Z,110
2017-03-30T07:42:33.164Z,120
2017-03-30T07:43:55.204Z,130
2017-03-30T07:45:17.428Z,145
2017-03-30T07:46:39.897Z,165
2017-03-30T07:48:02.737Z,195
2017-03-30T07:49:24.255Z,215
2017-03-30T07:50:46.497Z,225
2017-03-30T07:52:08.659Z,240
2017-03-30T07:53:30.400Z,255
2017-03-30T07:54:52.564Z,265
2017-03-30T07:56:15.050Z,270
2017-03-30T07:57:37.198Z,265
2017-03-30T07:58:59.644Z,260
2017-03-30T08:00:21.844Z,280
2017-03-30T08:01:43.989Z,280
2017-03-30T08:03:05.528Z,260
2017-03-30T08:04:27.945Z,265
2017-03-30T08:05:49.465Z,265
2017-03-30T08:07:11.951Z,270
2017-03-30T08:08:34.414Z,245
2017-03-30T08:09:57.124Z,225
2017-03-30T08:11:19.450Z,220
2017-03-30T08:12:41.646Z,225
2017-03-30T08:14:03.813Z,215
2017-03-30T08:15:25.888Z,205
2017-03-30T08:16:48.038Z,205
2017-03-30T08:18:10.182Z,210
2017-03-30T08:19:32.685Z,215
2017-03-30T08:20:55.493Z,230
2017-03-30T08:22:17.350Z,250
2017-03-30T08:23:38.740Z,275
2017-03-30T08:25:00.265Z,285
2017-03-30T08:26:24.446Z,295
2017-03-30T08:27:46.756Z,305
2017-03-30T08:29:08.264Z,295
2017-03-30T08:30:29.456Z,285
2017-03-30T08:31:52.222Z,295
2017-03-30T08:33:14.376Z,305
2017-03-30T08:34:36.923Z,305
2017-03-30T08:35:58.773Z,315
2017-03-30T08:37:20.854Z,315
2017-03-30T08:38:43.300Z,305
2017-03-30T08:40:05.182Z,300
2017-03-30T08:41:27.340Z,305
2017-03-30T08:42:49.835Z,310
2017-03-30T08:44:11.790Z,325
2017-03-30T08:45:33.934Z,335
2017-03-30T08:46:56.123Z,330
2017-03-30T08:48:18.897Z,315
2017-03-30T08:49:41.455Z,315
2017-03-30T08:51:02.704Z,315
2017-03-30T08:52:24.310Z,325
2017-03-30T08:53:46.926Z,325
2017-03-30T08:55:09.135Z,335
2017-03-30T08:56:31.025Z,345
2017-03-30T08:57:53.462Z,360
2017-03-30T08:59:15.975Z,365
2017-03-30T09:00:37.796Z,370
2017-03-30T09:01:59.643Z,380
2017-03-30T09:03:21.508Z,380
2017-03-30T09:04:43.923Z,370
2017-03-30T09:06:05.763Z,370
2017-03-30T09:07:28.202Z,375
2017-03-30T09:08:49.704Z,375
2017-03-30T09:10:11.484Z,380
2017-03-30T09:11:33.006Z,385
2017-03-30T09:12:54.577Z,390
2017-03-30T09:14:16.473Z,395
2017-03-30T09:15:38.943Z,405
2017-03-30T09:17:01.533Z,405
2017-03-30T09:18:23.736Z,410
2017-03-30T09:19:45.884Z,410
2017-03-30T09:21:08.503Z,410
2017-03-30T09:22:30.356Z,410
2017-03-30T09:23:51.876Z,410
2017-03-30T09:25:14.370Z,415
2017-03-30T09:26:36.545Z,410
2017-03-30T09:27:57.763Z,410
2017-03-30T09:29:18.997Z,405
2017-03-30T09:30:41.146Z,405
2017-03-30T09:32:03.425Z,400
2017-03-30T09:33:25.976Z,400
2017-03-30T09:34:47.916Z,405
2017-03-30T09:36:09.134Z,415
2017-03-30T09:37:31.796Z,420
2017-03-30T09:38:54.047Z,425
2017-03-30T09:40:15.563Z,420
2017-03-30T09:41:37.092Z,420
2017-03-30T09:42:58.576Z,420
2017-03-30T09:44:20.746Z,430
2017-03-30T09:45:43.233Z,430
2017-03-30T09:47:05.385Z,425
2017-03-30T09:48:26.834Z,415
2017-03-30T09:49:48.975Z,410
2017-03-30T09:51:10.886Z,405
2017-03-30T09:52:33.165Z,400
2017-03-30T09:53:55.573Z,400
2017-03-30T09:55:17.745Z,385
2017-03-30T09:56:39.084Z,375
2017-03-30T09:58:01.306Z,370
2017-03-30T09:59:23.448Z,380
2017-03-30T10:00:44.983Z,400
2017-03-30T10:02:06.913Z,415
2017-03-30T10:03:29.116Z,425
2017-03-30T10:04:51.502Z,440
2017-03-30T10:06:13.766Z,440
2017-03-30T10:07:35.938Z,420
2017-03-30T10:08:57.473Z,420
2017-03-30T10:10:20.315Z,410
2017-03-30T10:11:41.832Z,395
2017-03-30T10:13:03.745Z,385
2017-03-30T10:14:25.645Z,365
2017-03-30T10:15:47.770Z,345
2017-03-30T10:17:09.937Z,335
2017-03-30T10:18:32.425Z,330
2017-03-30T10:19:54.644Z,315
2017-03-30T10:21:17.106Z,300
2017-03-30T10:22:38.955Z,310
2017-03-30T10:24:00.785Z,310
2017-03-30T10:25:22.945Z,325
2017-03-30T10:26:44.706Z,345
2017-03-30T10:28:06.878Z,330
2017-03-30T10:29:29.445Z,300
2017-03-30T10:30:50.985Z,310
2017-03-30T10:32:13.435Z,310
2017-03-30T10:33:35.281Z,300
2017-03-30T10:34:57.436Z,280
2017-03-30T10:36:19.924Z,275
2017-03-30T10:37:41.424Z,275
2017-03-30T10:39:03.895Z,295
2017-03-30T10:40:25.715Z,280
2017-03-30T10:41:48.196Z,280
2017-03-30T10:43:10.965Z,300
2017-03-30T10:44:32.905Z,335
2017-03-30T10:45:54.504Z,395
2017-03-30T10:47:16.361Z,420
2017-03-30T10:48:39.294Z,415
2017-03-30T10:50:01.436Z,400
2017-03-30T10:51:22.968Z,395
2017-03-30T10:52:45.215Z,375
2017-03-30T10:54:08.032Z,365
2017-03-30T10:55:29.895Z,365
2017-03-30T10:56:52.188Z,375
2017-03-30T10:58:14.026Z,375
2017-03-30T10:59:36.495Z,385
2017-03-30T11:00:58.014Z,370
2017-03-30T11:02:20.170Z,350
2017-03-30T11:03:42.035Z,350
2017-03-30T11:05:03.485Z,355
2017-03-30T11:06:25.315Z,320
2017-03-30T11:07:47.806Z,315
2017-03-30T11:09:09.966Z,335
2017-03-30T11:10:32.068Z,320
2017-03-30T11:11:53.931Z,315
2017-03-30T11:13:15.894Z,325
2017-03-30T11:14:37.766Z,315
2017-03-30T11:15:59.930Z,305
2017-03-30T11:17:21.804Z,305
2017-03-30T11:18:43.320Z,285
2017-03-30T11:20:05.485Z,280
2017-03-30T11:21:27.948Z,265
2017-03-30T11:22:50.131Z,260
2017-03-30T11:24:12.280Z,270
2017-03-30T11:25:34.435Z,275
2017-03-30T11:26:56.587Z,295
2017-03-30T11:28:18.842Z,310
2017-03-30T11:29:41.304Z,340
2017-03-30T11:31:03.391Z,340
2017-03-30T11:32:25.574Z,325
2017-03-30T11:33:47.726Z,320
2017-03-30T11:35:10.218Z,315
2017-03-30T11:36:32.377Z,305
2017-03-30T11:37:55.231Z,295
2017-03-30T11:39:17.385Z,305
2017-03-30T11:40:39.543Z,315
2017-03-30T11:42:02.013Z,305
2017-03-30T11:43:24.466Z,285
2017-03-30T11:44:46.984Z,300
2017-03-30T11:46:08.316Z,340
2017-03-30T11:47:30.485Z,380
2017-03-30T11:48:52.935Z,405
2017-03-30T11:50:14.767Z,410
2017-03-30T11:51:36.966Z,400
2017-03-30T11:52:58.505Z,405
2017-03-30T11:54:21.270Z,400
2017-03-30T11:55:43.886Z,395
2017-03-30T11:57:06.270Z,395
2017-03-30T11:58:28.125Z,380
2017-03-30T11:59:50.538Z,375
2017-03-30T12:01:12.794Z,380
2017-03-30T12:02:34.635Z,375
2017-03-30T12:03:57.099Z,390
2017-03-30T12:05:19.564Z,395
2017-03-30T12:06:42.076Z,400
2017-03-30T12:08:04.036Z,390
2017-03-30T12:09:26.208Z,385
2017-03-30T12:10:48.666Z,385
2017-03-30T12:12:11.146Z,370
2017-03-30T12:13:32.994Z,360
2017-03-30T12:14:55.306Z,360
2017-03-30T12:16:17.744Z,355
2017-03-30T12:17:39.586Z,350
2017-03-30T12:19:01.460Z,340
2017-03-30T12:20:23.667Z,320
2017-03-30T12:21:46.135Z,305
2017-03-30T12:23:07.796Z,325
2017-03-30T12:24:30.048Z,300
2017-03-30T12:25:52.236Z,250
2017-03-30T12:27:14.755Z,240
2017-03-30T12:28:37.257Z,255
2017-03-30T12:29:59.507Z,290
2017-03-30T12:31:21.362Z,300
2017-03-30T12:33:12.687Z,295
2017-03-30T12:34:35.390Z,305
2017-03-30T12:35:57.669Z,315
2017-03-30T12:37:20.263Z,310
2017-03-30T12:38:43.006Z,305
2017-03-30T12:40:05.216Z,315
2017-03-30T12:41:27.105Z,330
2017-03-30T12:42:49.299Z,345
2017-03-30T12:44:11.746Z,370
2017-03-30T12:45:33.916Z,360
2017-03-30T12:46:55.476Z,370
2017-03-30T12:48:18.031Z,350
2017-03-30T12:49:40.486Z,345
2017-03-30T12:51:02.657Z,345
2017-03-30T12:52:24.526Z,350
2017-03-30T12:53:46.365Z,315
2017-03-30T12:55:08.539Z,295
2017-03-30T12:56:30.086Z,305
2017-03-30T12:57:52.247Z,295
2017-03-30T12:59:14.413Z,300
2017-03-30T13:00:36.866Z,305
2017-03-30T13:01:58.716Z,340
2017-03-30T13:03:19.927Z,345
2017-03-30T13:04:42.391Z,340
2017-03-30T13:06:04.856Z,280
2017-03-30T13:07:26.845Z,260
2017-03-30T13:08:48.675Z,275
2017-03-30T13:10:10.575Z,295
2017-03-30T13:11:32.841Z,365
2017-03-30T13:12:54.692Z,385
2017-03-30T13:14:16.205Z,360
2017-03-30T13:15:38.352Z,355
2017-03-30T13:17:01.098Z,355
2017-03-30T13:18:23.254Z,345
2017-03-30T13:19:45.470Z,325
2017-03-30T13:21:07.627Z,320
2017-03-30T13:22:29.475Z,310
2017-03-30T13:23:51.333Z,315
2017-03-30T13:25:13.834Z,315
2017-03-30T13:26:36.008Z,320
2017-03-30T13:27:58.725Z,295
2017-03-30T13:29:20.566Z,280
2017-03-30T13:30:43.197Z,305
2017-03-30T13:32:05.699Z,285
2017-03-30T13:33:28.187Z,315
2017-03-30T13:34:50.675Z,340
2017-03-30T13:36:12.525Z,340
2017-03-30T13:37:35.027Z,335
2017-03-30T13:38:57.886Z,345
2017-03-30T13:40:20.107Z,345
2017-03-30T13:41:42.097Z,355
2017-03-30T13:43:04.274Z,355
2017-03-30T13:44:26.679Z,305
2017-03-30T13:45:48.547Z,305
2017-03-30T13:47:10.716Z,315
2017-03-30T13:48:32.864Z,330
2017-03-30T13:49:55.299Z,335
2017-03-30T13:51:17.225Z,315
2017-03-30T13:52:38.864Z,315
2017-03-30T13:54:01.005Z,305
2017-03-30T13:55:23.166Z,305
2017-03-30T13:56:45.654Z,280
2017-03-30T13:58:07.205Z,265
2017-03-30T13:59:28.788Z,265
2017-03-30T14:00:50.723Z,265
2017-03-30T14:02:12.985Z,295
2017-03-30T14:03:35.248Z,315
2017-03-30T14:04:57.714Z,320
2017-03-30T14:06:19.644Z,315
2017-03-30T14:07:41.885Z,305
2017-03-30T14:09:04.145Z,310
2017-03-30T14:10:26.308Z,300
2017-03-30T14:11:49.037Z,295
2017-03-30T14:13:11.255Z,285
2017-03-30T14:14:33.775Z,280
2017-03-30T14:15:55.626Z,280
2017-03-30T14:17:18.043Z,290
2017-03-30T14:18:39.936Z,290
2017-03-30T14:20:01.459Z,285
2017-03-30T14:21:24.027Z,265
2017-03-30T14:22:46.877Z,265
2017-03-30T14:24:09.337Z,255
2017-03-30T14:25:31.219Z,240
2017-03-30T14:26:53.724Z,250
2017-03-30T14:28:15.887Z,250
2017-03-30T14:29:38.357Z,255
2017-03-30T14:31:00.538Z,250
2017-03-30T14:32:23.045Z,245
2017-03-30T14:33:45.814Z,240
2017-03-30T14:35:08.333Z,235
2017-03-30T14:36:30.927Z,250
2017-03-30T14:37:53.205Z,260
2017-03-30T14:39:15.655Z,260
2017-03-30T14:40:37.509Z,270
2017-03-30T14:41:59.685Z,280
2017-03-30T14:43:21.864Z,270
2017-03-30T14:44:44.316Z,265
2017-03-30T14:46:06.489Z,260
2017-03-30T14:47:28.715Z,250
2017-03-30T14:48:50.616Z,245
2017-03-30T14:50:13.444Z,250
2017-03-30T14:51:35.928Z,240
2017-03-30T14:52:58.167Z,230
2017-03-30T14:54:19.738Z,225
2017-03-30T14:55:42.483Z,220
2017-03-30T14:57:04.658Z,215
2017-03-30T14:58:27.115Z,215
2017-03-30T14:59:49.647Z,215
2017-03-30T15:01:12.376Z,215
2017-03-30T15:02:34.873Z,215
2017-03-30T15:03:56.885Z,215
2017-03-30T15:05:19.435Z,215
2017-03-30T15:06:42.247Z,205
2017-03-30T15:08:04.432Z,205
2017-03-30T15:09:26.921Z,205
2017-03-30T15:10:49.400Z,200
2017-03-30T15:12:12.332Z,195
2017-03-30T15:13:34.505Z,200
2017-03-30T15:14:56.674Z,200
2017-03-30T15:16:18.903Z,195
2017-03-30T15:18:12.973Z,195
2017-03-30T15:19:35.163Z,195
2017-03-30T15:20:56.986Z,195
2017-03-30T15:22:18.556Z,195
2017-03-30T15:23:41.292Z,205
2017-03-30T15:25:03.785Z,205
2017-03-30T15:26:26.247Z,205
2017-03-30T15:27:47.796Z,205
2017-03-30T15:29:10.824Z,200
2017-03-30T15:30:33.004Z,200
2017-03-30T15:31:55.179Z,200
2017-03-30T15:33:17.364Z,200
2017-03-30T15:34:39.845Z,200
2017-03-30T15:36:02.035Z,195
2017-03-30T15:37:24.516Z,195
2017-03-30T15:38:46.395Z,195
2017-03-30T15:40:08.809Z,190
2017-03-30T15:41:30.993Z,190
2017-03-30T15:42:53.475Z,190
2017-03-30T15:44:15.956Z,195
2017-03-30T15:45:38.779Z,195
2017-03-30T15:47:00.944Z,195
2017-03-30T15:48:21.979Z,195
2017-03-30T15:49:44.360Z,195
2017-03-30T15:51:06.836Z,195
2017-03-30T15:52:29.019Z,195
2017-03-30T15:53:51.683Z,200
2017-03-30T15:55:13.862Z,190
2017-03-30T15:56:36.036Z,185
2017-03-30T15:57:58.366Z,180
2017-03-30T15:59:20.254Z,180
2017-03-30T16:00:42.442Z,175
2017-03-30T16:02:04.934Z,170
2017-03-30T16:03:27.192Z,165
2017-03-30T16:04:49.057Z,165
2017-03-30T16:06:10.737Z,160
2017-03-30T16:07:33.516Z,160
2017-03-30T16:08:55.376Z,160
2017-03-30T16:10:17.575Z,160
2017-03-30T16:11:39.434Z,155
2017-03-30T16:13:01.857Z,155
2017-03-30T16:14:24.395Z,155
2017-03-30T16:15:46.674Z,155
2017-03-30T16:17:08.825Z,155
2017-03-30T16:18:31.608Z,155
2017-03-30T16:19:53.467Z,155
2017-03-30T16:21:15.327Z,155
2017-03-30T16:22:37.905Z,150
2017-03-30T16:24:00.701Z,145
2017-03-30T16:25:22.565Z,140
2017-03-30T16:26:45.035Z,135
2017-03-30T16:28:07.625Z,130
2017-03-30T16:29:30.115Z,125
2017-03-30T16:30:52.345Z,120
2017-03-30T16:32:14.304Z,120
2017-03-30T16:33:36.803Z,120
2017-03-30T16:34:59.282Z,115
2017-03-30T16:36:21.752Z,110
2017-03-30T16:37:43.638Z,105
2017-03-30T16:39:05.840Z,105
2017-03-30T16:40:28.570Z,100
2017-03-30T16:41:50.755Z,95
2017-03-30T16:43:12.948Z,100
2017-03-30T16:44:34.833Z,100
2017-03-30T16:45:58.033Z,100
2017-03-30T16:47:20.206Z,95
2017-03-30T16:48:42.074Z,90
2017-03-30T16:50:03.615Z,85
2017-03-30T16:51:26.026Z,80
2017-03-30T16:52:48.172Z,70
2017-03-30T16:54:09.915Z,70
2017-03-30T16:55:32.440Z,70
2017-03-30T16:56:55.246Z,70
2017-03-30T16:58:17.232Z,65
2017-03-30T16:59:39.378Z,65
2017-03-30T17:01:01.850Z,60
2017-03-30T17:02:24.413Z,60
2017-03-30T17:03:46.911Z,55
2017-03-30T17:05:09.105Z,55
2017-03-30T17:06:31.298Z,50
2017-03-30T17:07:53.752Z,50
2017-03-30T17:09:15.646Z,50
2017-03-30T17:10:37.983Z,45
2017-03-30T17:12:00.495Z,45
2017-03-30T17:13:23.386Z,40
2017-03-30T17:14:45.864Z,40
2017-03-30T17:16:08.110Z,35
2017-03-30T17:17:30.584Z,35
2017-03-30T17:18:52.688Z,35
2017-03-30T17:20:14.524Z,35
2017-03-30T17:21:36.375Z,30
2017-03-30T17:22:58.536Z,30
2017-03-30T17:24:21.015Z,30
2017-03-30T17:25:43.194Z,30
2017-03-30T17:27:05.726Z,25
2017-03-30T17:28:27.903Z,25
2017-03-30T17:29:50.317Z,25
2017-03-30T17:31:12.794Z,25
2017-03-30T17:32:35.366Z,20
2017-03-30T17:33:58.023Z,20
2017-03-30T17:35:20.813Z,20
2017-03-30T17:36:43.397Z,20
2017-03-30T17:38:05.885Z,15
2017-03-30T17:39:28.315Z,15
2017-03-30T17:40:50.857Z,15
2017-03-30T17:42:13.343Z,15
2017-03-30T17:43:35.542Z,10
2017-03-30T17:44:58.025Z,10
2017-03-30T17:46:20.452Z,10
2017-03-30T17:47:42.967Z,10
2017-03-30T17:49:05.579Z,5
2017-03-30T17:50:27.521Z,5
2017-03-30T17:51:50.373Z,5
2017-03-30T17:53:12.258Z,5
2017-03-30T17:54:34.765Z,5
2017-03-30T17:55:56.694Z,5
2017-03-30T17:57:18.825Z,0
2017-03-30T17:58:41.308Z,0
2017-03-30T18:00:03.916Z,0
2017-03-30T18:01:26.403Z,0
2017-03-30T18:02:48.277Z,0
2017-03-30T18:04:10.557Z,0
2017-03-30T18:05:32.767Z,0
2017-03-30T18:06:55.278Z,0
2017-03-30T18:08:18.023Z,0
2017-03-30T18:09:40.737Z,0
2017-03-30T18:11:02.946Z,0
2017-03-30T18:12:25.474Z,0
2017-03-30T18:13:47.961Z,0
2017-03-30T18:15:10.585Z,0
2017-03-30T18:16:33.224Z,0
2017-03-30T18:17:55.418Z,0
2017-03-30T18:19:17.831Z,0
2017-03-30T18:20:40.321Z,0
2017-03-30T18:22:02.824Z,0
2017-03-30T18:23:25.011Z,0
2017-03-30T18:24:47.441Z,0
2017-03-30T18:26:09.924Z,0
2017-03-30T18:27:32.435Z,0
2017-03-30T18:28:54.610Z,0
2017-03-30T18:30:16.448Z,0
2017-03-30T18:31:38.997Z,0
2017-03-30T18:33:01.179Z,0
2017-03-30T18:34:23.432Z,0
2017-03-30T18:35:45.890Z,0
2017-03-30T18:37:08.435Z,0
2017-03-30T18:38:30.939Z,0
2017-03-30T18:39:53.475Z,0
2017-03-30T18:41:16.286Z,0
2017-03-30T18:42:39.085Z,0
2017-03-30T18:44:00.949Z,0
2017-03-30T18:45:23.127Z,0
2017-03-30T18:46:45.617Z,0
2017-03-30T18:48:07.873Z,0
2017-03-30T18:49:30.067Z,0
2017-03-30T18:50:52.275Z,0
2017-03-30T18:52:15.072Z,0
2017-03-30T18:53:37.285Z,0
2017-03-30T18:54:59.775Z,0
2017-03-30T18:56:22.358Z,0
2017-03-30T18:57:45.057Z,0
2017-03-30T18:59:07.257Z,0
2017-03-30T19:00:29.787Z,0
2017-03-30T19:01:52.049Z,0
2017-03-30T19:03:14.463Z,0
2017-03-30T19:04:36.377Z,0
2017-03-30T19:05:58.246Z,0
2017-03-30T19:07:20.436Z,0
2017-03-30T19:08:43.208Z,0
2017-03-30T19:10:05.568Z,0
2017-03-30T19:11:28.153Z,0
2017-03-30T19:12:49.409Z,0
2017-03-30T19:14:11.989Z,0
2017-03-30T19:15:34.254Z,0
2017-03-30T19:16:56.472Z,0
2017-03-30T19:18:19.045Z,0
2017-03-30T19:19:41.567Z,0
2017-03-30T19:21:03.734Z,0
2017-03-30T19:22:26.233Z,0
2017-03-30T19:23:48.147Z,0
2017-03-30T19:25:10.333Z,0
2017-03-30T19:26:32.951Z,0
2017-03-30T19:27:55.446Z,0
2017-03-30T19:29:17.316Z,0
2017-03-30T19:30:39.589Z,0
2017-03-30T19:32:01.767Z,0
2017-03-30T19:33:24.304Z,0
2017-03-30T19:34:46.979Z,0
2017-03-30T19:36:09.749Z,0
2017-03-30T19:37:31.636Z,0
2017-03-30T19:38:54.266Z,0
2017-03-30T19:40:16.459Z,0
2017-03-30T19:41:38.908Z,0
2017-03-30T19:43:01.517Z,0
2017-03-30T19:44:23.347Z,0
2017-03-30T19:45:45.957Z,0
2017-03-30T19:47:08.426Z,0
2017-03-30T19:48:30.643Z,0
2017-03-30T19:49:52.986Z,0
2017-03-30T19:51:15.501Z,0
2017-03-30T19:52:37.426Z,0
2017-03-30T19:53:59.646Z,0
2017-03-30T19:55:21.519Z,0
2017-03-30T19:56:43.685Z,0
2017-03-30T19:58:06.206Z,0
2017-03-30T19:59:28.535Z,0
2017-03-30T20:00:50.706Z,0
2017-03-30T20:02:12.400Z,0
2017-03-30T20:03:34.555Z,0
2017-03-30T20:04:57.046Z,0
2017-03-30T20:06:19.209Z,0
2017-03-30T20:07:41.678Z,0
2017-03-30T20:09:04.170Z,0
2017-03-30T20:10:26.618Z,0
2017-03-30T20:11:47.848Z,0
2017-03-30T20:13:10.325Z,0
2017-03-30T20:14:32.515Z,0
2017-03-30T20:15:54.779Z,0
2017-03-30T20:17:17.238Z,0
2017-03-30T20:18:39.127Z,0
2017-03-30T20:20:01.525Z,0
2017-03-30T20:21:23.387Z,0
2017-03-30T20:22:45.874Z,0
2017-03-30T20:24:08.029Z,0
2017-03-30T20:25:30.818Z,0
2017-03-30T20:26:53.296Z,0
2017-03-30T20:28:15.158Z,0
2017-03-30T20:29:37.357Z,0
2017-03-30T20:30:59.871Z,0
2017-03-30T20:32:22.485Z,0
2017-03-30T20:33:44.685Z,0
2017-03-30T20:35:07.247Z,0
2017-03-30T20:36:29.717Z,0
2017-03-30T20:37:51.874Z,0
2017-03-30T20:39:13.440Z,0
2017-03-30T20:40:35.587Z,0
2017-03-30T20:41:58.002Z,0
2017-03-30T20:43:20.169Z,0
2017-03-30T20:44:42.707Z,0
2017-03-30T20:46:04.916Z,0
2017-03-30T20:47:27.609Z,0
2017-03-30T20:48:49.146Z,0
2017-03-30T20:50:11.023Z,0
2017-03-30T20:51:33.214Z,0
2017-03-30T20:52:55.563Z,0
2017-03-30T20:54:17.787Z,0
2017-03-30T20:55:40.272Z,0
2017-03-30T20:57:02.420Z,0
2017-03-30T20:58:25.218Z,0
2017-03-30T20:59:47.387Z,0
2017-03-30T21:01:09.864Z,0
2017-03-30T21:02:31.765Z,0
2017-03-30T21:03:53.938Z,0
2017-03-30T21:05:16.092Z,0
2017-03-30T21:06:37.955Z,0
2017-03-30T21:08:00.417Z,0
2017-03-30T21:09:23.159Z,0
2017-03-30T21:10:44.995Z,0
2017-03-30T21:12:07.486Z,0
2017-03-30T21:13:29.817Z,0
2017-03-30T21:14:52.312Z,0
2017-03-30T21:16:14.235Z,0
2017-03-30T21:17:36.425Z,0
2017-03-30T21:18:58.616Z,0
2017-03-30T21:20:21.030Z,0
2017-03-30T21:21:43.207Z,0
2017-03-30T21:23:05.357Z,0
2017-03-30T21:24:27.335Z,0
2017-03-30T21:25:49.094Z,0
2017-03-30T21:27:11.245Z,0
2017-03-30T21:28:32.786Z,0
2017-03-30T21:29:55.098Z,0
2017-03-30T21:31:17.215Z,0
2017-03-30T21:32:39.407Z,0
2017-03-30T21:34:01.612Z,0
2017-03-30T21:35:23.447Z,0
2017-03-30T21:36:45.602Z,0
2017-03-30T21:38:07.787Z,0
2017-03-30T21:39:29.625Z,0
2017-03-30T21:40:51.783Z,0
2017-03-30T21:42:13.935Z,0
2017-03-30T21:43:36.068Z,0
2017-03-30T21:44:58.225Z,0
2017-03-30T21:46:20.390Z,0
2017-03-30T21:47:43.368Z,0
2017-03-30T21:49:05.838Z,0
2017-03-30T21:50:27.989Z,0
2017-03-30T21:51:50.149Z,0
2017-03-30T21:53:12.547Z,0
2017-03-30T21:54:34.688Z,0
2017-03-30T21:55:56.513Z,0
2017-03-30T21:57:18.358Z,0
2017-03-30T21:58:40.856Z,0
2017-03-30T22:00:02.999Z,0
2017-03-30T22:01:25.478Z,0
2017-03-30T22:02:47.612Z,0
2017-03-30T22:04:10.127Z,0
2017-03-30T22:05:32.006Z,0
2017-03-30T22:06:53.518Z,0
2017-03-30T22:08:15.033Z,0
2017-03-30T22:09:37.415Z,0
2017-03-30T22:10:59.244Z,0
2017-03-30T22:12:21.756Z,0
2017-03-30T22:13:43.907Z,0
2017-03-30T22:15:06.085Z,0
2017-03-30T22:16:59.898Z,0
2017-03-30T22:18:21.409Z,0
2017-03-30T22:19:43.854Z,0
2017-03-30T22:21:05.975Z,0
2017-03-30T22:22:27.845Z,0
2017-03-30T22:23:49.659Z,0
2017-03-30T22:25:11.188Z,0
2017-03-30T22:26:33.267Z,0
2017-03-30T22:27:54.909Z,0
2017-03-30T22:29:17.045Z,0
2017-03-30T22:30:38.866Z,0
2017-03-30T22:32:01.325Z,0
2017-03-30T22:33:22.839Z,0
2017-03-30T22:34:44.666Z,0
2017-03-30T22:36:05.867Z,0
2017-03-30T22:37:27.988Z,0
2017-03-30T22:38:50.149Z,0
2017-03-30T22:40:12.298Z,0
2017-03-30T22:41:34.446Z,0
2017-03-30T22:42:57.181Z,0
2017-03-30T22:44:18.676Z,0
2017-03-30T22:45:40.524Z,0
2017-03-30T22:47:02.069Z,0
2017-03-30T22:48:24.510Z,0
2017-03-30T22:49:46.664Z,0
2017-03-30T22:51:08.542Z,0
2017-03-30T22:52:29.738Z,0
2017-03-30T22:53:52.183Z,0
2017-03-30T22:55:14.414Z,0
2017-03-30T22:56:36.927Z,0
2017-03-30T22:57:58.819Z,0
2017-03-30T22:59:21.223Z,0
2017-03-30T23:00:43.072Z,0
2017-03-30T23:02:04.609Z,0
2017-03-30T23:03:26.538Z,0
2017-03-30T23:04:48.627Z,0
2017-03-30T23:06:10.458Z,0
2017-03-30T23:07:31.354Z,0
2017-03-30T23:08:52.565Z,0
2017-03-30T23:10:14.362Z,0
2017-03-30T23:11:36.186Z,0
2017-03-30T23:12:58.297Z,0
2017-03-30T23:14:20.156Z,0
2017-03-30T23:15:42.538Z,0
2017-03-30T23:17:04.508Z,0
2017-03-30T23:18:26.076Z,0
2017-03-30T23:19:48.226Z,0
2017-03-30T23:21:09.737Z,0
2017-03-30T23:22:31.288Z,0
2017-03-30T23:23:53.169Z,0
2017-03-30T23:25:14.768Z,0
2017-03-30T23:26:36.974Z,0
2017-03-30T23:27:59.095Z,0
2017-03-30T23:29:21.107Z,0
2017-03-30T23:30:42.609Z,0
2017-03-30T23:32:04.376Z,0
2017-03-30T23:33:26.211Z,0
2017-03-30T23:34:48.044Z,0
2017-03-30T23:36:09.289Z,0
2017-03-30T23:37:31.666Z,0
2017-03-30T23:38:52.887Z,0
2017-03-30T23:40:15.347Z,0
2017-03-30T23:41:37.171Z,0
2017-03-30T23:42:59.303Z,0
2017-03-30T23:44:21.439Z,0
2017-03-30T23:45:42.946Z,0
2017-03-30T23:47:05.087Z,0
2017-03-30T23:48:27.268Z,0
2017-03-30T23:49:49.405Z,0
2017-03-30T23:51:11.223Z,0
2017-03-30T23:52:32.724Z,0
2017-03-30T23:53:54.587Z,0
2017-03-30T23:55:16.856Z,0
2017-03-30T23:56:38.687Z,0
2017-03-30T23:58:00.508Z,0
2017-03-30T23:59:21.991Z,0
